Impacts METAR Board
IDs:

KORD - Chicago/O'Hare Intl, IL, US

Updated at: 0800 UTC 21 Oct 2018
Potential Impact None Slight Moderate High
Time 20/20Z 20/21Z 20/22Z 20/23Z 21/00Z 21/01Z 21/02Z 21/03Z 21/04Z 21/05Z 21/06Z 21/07Z 21/08Z
Temp40 41 40 40 38 37 36 35 34 33 31 30 30
Dewpt24 26 25 22 19 18 18 18 19 20 20 21 21
Altim29.99 30.04 30.10 30.14 30.20 30.24 30.26 30.29 30.31 30.32 30.32 30.33 30.33
VIS10 10 10 10 10 10 10 10 10 10 10 10 10
CIG65 55 38 -- -- -- -- -- -- -- -- -- --
CoverOVCBKNBKNSCTFEWFEWFEWFEWFEWFEWFEWFEWFEW
FltCatVFRVFRVFRVFRVFRVFRVFRVFRVFRVFRVFRVFRVFR
WX--------------------------
WDir320330330330320330330310310310300290290
WSpd22 19 17 13 13 12 9 9 5 7 6 5 6
WGst40 37 32 26 23 20 -- -- -- -- -- -- --
Raw hourly METARs
KORD 201951Z 32022G40KT 10SM FEW043 BKN065 OVC080 04/M04 A2999 RMK AO2 PK WND 32040/1948 SNE07 SLP160 P0000 T00441044
KORD 202051Z 33019G37KT 10SM FEW038 BKN055 BKN075 BKN250 05/M03 A3004 RMK AO2 PK WND 31042/2037 SLP176 60000 T00501033 51049
KORD 202151Z 33017G32KT 10SM BKN038 BKN046 04/M04 A3010 RMK AO2 PK WND 31036/2101 SLP197 T00441039
KORD 202251Z 33013G26KT 10SM SCT036 SCT046 04/M06 A3014 RMK AO2 PK WND 32027/2205 SLP211 T00441056
KORD 202351Z 32013G23KT 10SM FEW044 03/M07 A3020 RMK AO2 PK WND 33030/2328 SLP231 60000 T00331072 10072 20033 51052
KORD 210051Z 33012G20KT 10SM FEW045 03/M08 A3024 RMK AO2 SLP245 T00281078
KORD 210151Z 33009KT 10SM FEW045 02/M08 A3026 RMK AO2 SLP253 T00221078
KORD 210251Z 31009KT 10SM FEW045 02/M08 A3029 RMK AO2 SLP262 T00171078 51031
KORD 210351Z 31005KT 10SM FEW045 01/M07 A3031 RMK AO2 SLP269 T00111072
KORD 210451Z 31007KT 10SM FEW045 01/M07 A3032 RMK AO2 SLP272 T00061067
KORD 210551Z 30006KT 10SM FEW045 M01/M07 A3032 RMK AO2 SLP273 T10061067 10039 21006 401061006 51009
KORD 210651Z 29005KT 10SM FEW045 M01/M06 A3033 RMK AO2 SLP276 T10111061
KORD 210751Z 29006KT 10SM FEW045 M01/M06 A3033 RMK AO2 SLP279 T10111061



Page loaded:  08:21 UTC  |   01:21 AM Pacific  |   02:21 AM Mountain  |   03:21 AM Central  |   04:21 AM Eastern

 

ADVISORIES

FORECASTS

FORECASTS

OBSERVATIONS

USER TOOLS

ABOUT US